Pagina principale
METAR-TAF:

METAR-TAF

Aeroporti :

Aeroporto Internazionale di Palau

Koror, Babeldaob, Palau

latitudine: 07-22N, longitudine: 134-32E, altezza: 54 m

Osservazione

Il bollettino è stato emesso 28 minuti fa, alle 22:50 UTC
Vento 4 kt da sud
Temperature 28°C
Umidità 84%
Pressione 1010 hPa
Nubi sparse ad un'altezza di 1600 ft
Nuvoloso ad un'altezza di 12000 ft
Cielo coperto ad un'altezza di 30000 ft

METAR: PTRO 192250Z 19004KT SCT016 BKN120 OVC300 28/25 A2982

Ora: 08:18 (23:18 UTC)

Previsione

Il bollettino è stato emesso 5 ore e 58 minuti fa, alle 17:20 UTC
Previsione valida dal 19 alle 18 UTC al 20 alle 18 UTC
Vento 10 kt da sud/sud-ovest
Visibilità: 10 km
Nubi sparse ad un'altezza di 1600 ft
Nuvoloso ad un'altezza di 12000 ft
rovesci nelle vicinanze

TAF: PTRO 191720Z 1918/2018 20010KT P6SM VCSH SCT016 BKN120

Osservazioni e previsioni meteorologiche di più di 4000 aeroporti (messaggi METAR e TAF).

Le stazioni disponibili sono rappresentate dai dischi gialli e rossi sulla carta.

Puntare il mouse per vedere il nome della stazione.

Clicca sopra per visualizzare le osservazioni e previsioni meteorologiche.

Per cambiare la mappa : fare clic sui pulsanti verdi con una croce nera per ingrandire, il pulsante verde con un trattino per diminuire, o sulla freccia verde per le mappe adiacenti.


METAR-TAF: